sensor_id;sensor_type;location;lat;lon;timestamp;pressure;altitude;pressure_sealevel;temperature;humidity
60589;BME280;46421;48.610;9.334;2022-07-24T00:00:48;98362.28;;;19.72;85.66
60589;BME280;46421;48.610;9.334;2022-07-24T00:03:13;98366.47;;;19.87;85.55
60589;BME280;46421;48.610;9.334;2022-07-24T00:05:39;98371.56;;;19.77;86.20
60589;BME280;46421;48.610;9.334;2022-07-24T00:08:04;98377.00;;;19.39;87.61
60589;BME280;46421;48.610;9.334;2022-07-24T00:10:29;98376.03;;;19.15;89.32
60589;BME280;46421;48.610;9.334;2022-07-24T00:12:55;98374.59;;;18.94;90.36
60589;BME280;46421;48.610;9.334;2022-07-24T00:15:20;98380.13;;;18.99;91.41
60589;BME280;46421;48.610;9.334;2022-07-24T00:17:45;98371.16;;;19.24;90.53
60589;BME280;46421;48.610;9.334;2022-07-24T00:20:11;98381.72;;;19.25;89.77
60589;BME280;46421;48.610;9.334;2022-07-24T00:22:36;98380.47;;;19.28;88.56
60589;BME280;46421;48.610;9.334;2022-07-24T00:25:02;98378.50;;;19.54;86.45
60589;BME280;46421;48.610;9.334;2022-07-24T00:27:28;98372.28;;;19.53;87.83
60589;BME280;46421;48.610;9.334;2022-07-24T00:29:53;98378.09;;;19.69;86.28
60589;BME280;46421;48.610;9.334;2022-07-24T00:32:18;98377.50;;;19.85;86.06
60589;BME280;46421;48.610;9.334;2022-07-24T00:34:44;98371.81;;;20.05;84.25
60589;BME280;46421;48.610;9.334;2022-07-24T00:37:09;98378.63;;;20.08;83.07
60589;BME280;46421;48.610;9.334;2022-07-24T00:39:35;98379.16;;;19.86;84.17
60589;BME280;46421;48.610;9.334;2022-07-24T00:42:00;98376.22;;;19.69;85.81
60589;BME280;46421;48.610;9.334;2022-07-24T00:44:26;98370.81;;;19.69;85.61
60589;BME280;46421;48.610;9.334;2022-07-24T00:46:51;98369.34;;;19.73;84.41
60589;BME280;46421;48.610;9.334;2022-07-24T00:49:19;98370.47;;;19.66;85.56
60589;BME280;46421;48.610;9.334;2022-07-24T00:51:47;98372.53;;;19.64;86.54
60589;BME280;46421;48.610;9.334;2022-07-24T00:54:14;98367.53;;;19.67;84.97
60589;BME280;46421;48.610;9.334;2022-07-24T00:56:42;98364.38;;;19.70;85.66
60589;BME280;46421;48.610;9.334;2022-07-24T00:59:07;98363.63;;;19.82;85.53
60589;BME280;46421;48.610;9.334;2022-07-24T01:01:33;98375.22;;;19.82;85.09
60589;BME280;46421;48.610;9.334;2022-07-24T01:03:58;98373.66;;;19.93;82.99
60589;BME280;46421;48.610;9.334;2022-07-24T01:06:24;98369.34;;;19.55;84.96
60589;BME280;46421;48.610;9.334;2022-07-24T01:08:50;98366.34;;;19.63;85.61
60589;BME280;46421;48.610;9.334;2022-07-24T01:11:16;98368.53;;;19.54;85.15
60589;BME280;46421;48.610;9.334;2022-07-24T01:13:41;98371.91;;;19.50;85.75
60589;BME280;46421;48.610;9.334;2022-07-24T01:16:08;98369.41;;;19.48;85.31
60589;BME280;46421;48.610;9.334;2022-07-24T01:18:34;98371.00;;;19.37;86.41
60589;BME280;46421;48.610;9.334;2022-07-24T01:20:59;98369.16;;;19.38;86.58
60589;BME280;46421;48.610;9.334;2022-07-24T01:23:24;98360.75;;;19.77;85.95
60589;BME280;46421;48.610;9.334;2022-07-24T01:25:50;98366.25;;;19.88;83.09
60589;BME280;46421;48.610;9.334;2022-07-24T01:28:16;98361.97;;;19.81;82.87
60589;BME280;46421;48.610;9.334;2022-07-24T01:30:42;98366.06;;;19.53;84.85
60589;BME280;46421;48.610;9.334;2022-07-24T01:33:08;98361.13;;;19.50;84.98
60589;BME280;46421;48.610;9.334;2022-07-24T01:35:33;98361.00;;;19.26;85.92
60589;BME280;46421;48.610;9.334;2022-07-24T01:37:58;98365.84;;;19.17;86.49
60589;BME280;46421;48.610;9.334;2022-07-24T01:40:24;98364.69;;;18.88;88.20
60589;BME280;46421;48.610;9.334;2022-07-24T01:42:50;98366.16;;;18.84;89.38
60589;BME280;46421;48.610;9.334;2022-07-24T01:45:16;98368.53;;;18.99;89.57
60589;BME280;46421;48.610;9.334;2022-07-24T01:47:42;98374.00;;;19.29;86.60
60589;BME280;46421;48.610;9.334;2022-07-24T01:50:07;98374.44;;;19.44;86.13
60589;BME280;46421;48.610;9.334;2022-07-24T01:52:33;98370.00;;;19.20;86.15
60589;BME280;46421;48.610;9.334;2022-07-24T01:54:58;98374.53;;;19.19;85.55
60589;BME280;46421;48.610;9.334;2022-07-24T01:57:23;98372.50;;;18.96;87.06
60589;BME280;46421;48.610;9.334;2022-07-24T01:59:49;98370.09;;;18.62;88.61
60589;BME280;46421;48.610;9.334;2022-07-24T02:02:14;98370.00;;;18.51;89.54
60589;BME280;46421;48.610;9.334;2022-07-24T02:04:39;98372.00;;;18.30;90.20
60589;BME280;46421;48.610;9.334;2022-07-24T02:07:04;98378.88;;;18.26;90.63
60589;BME280;46421;48.610;9.334;2022-07-24T02:09:30;98376.78;;;18.28;90.69
60589;BME280;46421;48.610;9.334;2022-07-24T02:11:55;98372.38;;;18.59;89.77
60589;BME280;46421;48.610;9.334;2022-07-24T02:14:21;98383.22;;;18.77;88.28
60589;BME280;46421;48.610;9.334;2022-07-24T02:16:46;98375.19;;;18.45;89.71
60589;BME280;46421;48.610;9.334;2022-07-24T02:19:11;98375.03;;;18.40;90.92
60589;BME280;46421;48.610;9.334;2022-07-24T02:21:37;98373.47;;;18.58;90.61
60589;BME280;46421;48.610;9.334;2022-07-24T02:24:02;98375.19;;;18.71;89.41
60589;BME280;46421;48.610;9.334;2022-07-24T02:26:28;98373.47;;;18.76;88.65
60589;BME280;46421;48.610;9.334;2022-07-24T02:28:53;98370.88;;;18.70;87.33
60589;BME280;46421;48.610;9.334;2022-07-24T02:31:18;98374.31;;;18.52;89.65
60589;BME280;46421;48.610;9.334;2022-07-24T02:33:44;98376.91;;;18.65;88.72
60589;BME280;46421;48.610;9.334;2022-07-24T02:36:09;98373.19;;;18.85;87.40
60589;BME280;46421;48.610;9.334;2022-07-24T02:38:34;98365.44;;;18.51;88.04
60589;BME280;46421;48.610;9.334;2022-07-24T02:41:00;98361.97;;;18.19;89.91
60589;BME280;46421;48.610;9.334;2022-07-24T02:43:25;98361.97;;;18.19;90.39
60589;BME280;46421;48.610;9.334;2022-07-24T02:45:51;98363.06;;;18.04;91.64
60589;BME280;46421;48.610;9.334;2022-07-24T02:48:16;98365.88;;;18.16;90.49
60589;BME280;46421;48.610;9.334;2022-07-24T02:50:41;98359.69;;;18.15;90.49
60589;BME280;46421;48.610;9.334;2022-07-24T02:53:07;98363.72;;;18.57;88.69
60589;BME280;46421;48.610;9.334;2022-07-24T02:55:32;98365.44;;;18.51;87.99
60589;BME280;46421;48.610;9.334;2022-07-24T02:57:57;98366.00;;;18.28;89.50
60589;BME280;46421;48.610;9.334;2022-07-24T03:00:23;98368.03;;;18.07;90.83
60589;BME280;46421;48.610;9.334;2022-07-24T03:02:48;98369.53;;;17.96;91.51
60589;BME280;46421;48.610;9.334;2022-07-24T03:05:14;98363.31;;;18.02;91.96
60589;BME280;46421;48.610;9.334;2022-07-24T03:07:39;98373.47;;;18.58;89.31
60589;BME280;46421;48.610;9.334;2022-07-24T03:10:06;98370.84;;;18.44;87.54
60589;BME280;46421;48.610;9.334;2022-07-24T03:12:32;98372.16;;;18.35;87.19
60589;BME280;46421;48.610;9.334;2022-07-24T03:14:58;98374.28;;;18.33;87.75
60589;BME280;46421;48.610;9.334;2022-07-24T03:17:23;98368.69;;;18.02;89.61
60589;BME280;46421;48.610;9.334;2022-07-24T03:19:48;98368.06;;;18.00;90.11
60589;BME280;46421;48.610;9.334;2022-07-24T03:22:14;98370.09;;;18.05;90.06
60589;BME280;46421;48.610;9.334;2022-07-24T03:24:39;98369.72;;;18.01;90.72
60589;BME280;46421;48.610;9.334;2022-07-24T03:27:04;98374.75;;;17.84;91.32
60589;BME280;46421;48.610;9.334;2022-07-24T03:29:30;98373.13;;;17.77;91.68
60589;BME280;46421;48.610;9.334;2022-07-24T03:31:55;98374.75;;;17.84;91.91
60589;BME280;46421;48.610;9.334;2022-07-24T03:34:21;98363.56;;;18.26;90.26
60589;BME280;46421;48.610;9.334;2022-07-24T03:36:46;98366.44;;;18.57;87.78
60589;BME280;46421;48.610;9.334;2022-07-24T03:39:12;98371.19;;;18.55;87.26
60589;BME280;46421;48.610;9.334;2022-07-24T03:41:37;98376.59;;;18.55;86.94
60589;BME280;46421;48.610;9.334;2022-07-24T03:44:02;98380.47;;;18.59;86.44
60589;BME280;46421;48.610;9.334;2022-07-24T03:46:28;98367.50;;;18.49;85.63
60589;BME280;46421;48.610;9.334;2022-07-24T03:48:53;98369.03;;;18.38;86.22
60589;BME280;46421;48.610;9.334;2022-07-24T03:51:18;98370.19;;;18.24;87.83
60589;BME280;46421;48.610;9.334;2022-07-24T03:53:44;98371.34;;;18.35;86.63
60589;BME280;46421;48.610;9.334;2022-07-24T03:56:09;98380.34;;;18.22;87.01
60589;BME280;46421;48.610;9.334;2022-07-24T03:58:35;98384.47;;;18.24;87.17
60589;BME280;46421;48.610;9.334;2022-07-24T04:01:01;98383.94;;;18.09;87.30
60589;BME280;46421;48.610;9.334;2022-07-24T04:03:26;98382.84;;;17.78;88.61
60589;BME280;46421;48.610;9.334;2022-07-24T04:05:52;98387.66;;;17.69;89.61
60589;BME280;46421;48.610;9.334;2022-07-24T04:08:17;98386.69;;;17.57;90.70
60589;BME280;46421;48.610;9.334;2022-07-24T04:10:42;98388.59;;;17.49;91.69
60589;BME280;46421;48.610;9.334;2022-07-24T04:13:08;98396.34;;;17.71;92.16
60589;BME280;46421;48.610;9.334;2022-07-24T04:15:33;98400.56;;;18.31;87.73
60589;BME280;46421;48.610;9.334;2022-07-24T04:17:58;98400.72;;;18.36;86.88
60589;BME280;46421;48.610;9.334;2022-07-24T04:20:24;98397.63;;;18.07;87.00
60589;BME280;46421;48.610;9.334;2022-07-24T04:22:49;98402.84;;;17.95;88.55
60589;BME280;46421;48.610;9.334;2022-07-24T04:25:14;98404.56;;;18.22;89.41
60589;BME280;46421;48.610;9.334;2022-07-24T04:27:40;98408.66;;;18.31;86.97
60589;BME280;46421;48.610;9.334;2022-07-24T04:30:05;98420.00;;;17.94;89.57
60589;BME280;46421;48.610;9.334;2022-07-24T04:32:31;98414.06;;;17.79;91.02
60589;BME280;46421;48.610;9.334;2022-07-24T04:34:56;98412.22;;;17.79;90.40
60589;BME280;46421;48.610;9.334;2022-07-24T04:37:22;98411.84;;;17.76;91.33
60589;BME280;46421;48.610;9.334;2022-07-24T04:39:47;98413.03;;;17.80;91.51
60589;BME280;46421;48.610;9.334;2022-07-24T04:42:12;98417.31;;;18.01;91.42
60589;BME280;46421;48.610;9.334;2022-07-24T04:44:37;98412.28;;;18.43;88.96
60589;BME280;46421;48.610;9.334;2022-07-24T04:47:03;98415.09;;;18.55;87.73
60589;BME280;46421;48.610;9.334;2022-07-24T04:49:28;98414.31;;;18.48;89.34
60589;BME280;46421;48.610;9.334;2022-07-24T04:51:53;98417.97;;;18.28;89.81
60589;BME280;46421;48.610;9.334;2022-07-24T04:54:19;98416.19;;;18.47;90.91
60589;BME280;46421;48.610;9.334;2022-07-24T04:56:44;98417.78;;;18.80;89.79
60589;BME280;46421;48.610;9.334;2022-07-24T04:59:09;98422.25;;;18.93;88.09
60589;BME280;46421;48.610;9.334;2022-07-24T05:01:35;98427.06;;;18.85;88.81
60589;BME280;46421;48.610;9.334;2022-07-24T05:04:00;98420.41;;;18.62;90.48
60589;BME280;46421;48.610;9.334;2022-07-24T05:06:25;98426.13;;;18.47;91.62
60589;BME280;46421;48.610;9.334;2022-07-24T05:08:51;98425.69;;;18.50;92.77
60589;BME280;46421;48.610;9.334;2022-07-24T05:11:16;98422.38;;;18.48;92.43
60589;BME280;46421;48.610;9.334;2022-07-24T05:13:42;98426.63;;;18.62;91.29
60589;BME280;46421;48.610;9.334;2022-07-24T05:16:07;98424.00;;;18.81;90.68
60589;BME280;46421;48.610;9.334;2022-07-24T05:18:32;98427.56;;;19.00;89.66
60589;BME280;46421;48.610;9.334;2022-07-24T05:20:57;98423.22;;;19.24;89.48
60589;BME280;46421;48.610;9.334;2022-07-24T05:23:23;98423.66;;;19.40;86.29
60589;BME280;46421;48.610;9.334;2022-07-24T05:25:48;98429.94;;;19.52;84.93
60589;BME280;46421;48.610;9.334;2022-07-24T05:28:14;98431.66;;;19.65;84.81
60589;BME280;46421;48.610;9.334;2022-07-24T05:30:39;98432.41;;;19.72;85.02
60589;BME280;46421;48.610;9.334;2022-07-24T05:33:04;98427.47;;;19.88;84.74
60589;BME280;46421;48.610;9.334;2022-07-24T05:35:29;98434.47;;;20.08;83.30
60589;BME280;46421;48.610;9.334;2022-07-24T05:37:55;98431.00;;;20.19;82.66
60589;BME280;46421;48.610;9.334;2022-07-24T05:40:21;98427.66;;;20.05;84.23
60589;BME280;46421;48.610;9.334;2022-07-24T05:42:46;98428.66;;;19.92;86.23
60589;BME280;46421;48.610;9.334;2022-07-24T05:45:11;98429.91;;;20.08;85.18
60589;BME280;46421;48.610;9.334;2022-07-24T05:47:40;98428.28;;;20.19;83.83
60589;BME280;46421;48.610;9.334;2022-07-24T05:50:10;98428.00;;;20.39;82.50
60589;BME280;46421;48.610;9.334;2022-07-24T05:52:36;98424.16;;;20.59;80.86
60589;BME280;46421;48.610;9.334;2022-07-24T05:55:03;98421.34;;;20.53;81.49
60589;BME280;46421;48.610;9.334;2022-07-24T05:57:28;98418.53;;;20.60;80.65
60589;BME280;46421;48.610;9.334;2022-07-24T05:59:53;98420.13;;;20.80;81.62
60589;BME280;46421;48.610;9.334;2022-07-24T06:02:19;98427.88;;;21.12;81.96
60589;BME280;46421;48.610;9.334;2022-07-24T06:04:44;98417.88;;;21.00;77.44
60589;BME280;46421;48.610;9.334;2022-07-24T06:07:10;98423.41;;;21.06;78.05
60589;BME280;46421;48.610;9.334;2022-07-24T06:09:36;98420.34;;;21.26;79.31
60589;BME280;46421;48.610;9.334;2022-07-24T06:12:02;98422.91;;;21.44;76.52
60589;BME280;46421;48.610;9.334;2022-07-24T06:14:27;98419.34;;;21.68;76.34
60589;BME280;46421;48.610;9.334;2022-07-24T06:16:53;98422.25;;;21.78;75.77
60589;BME280;46421;48.610;9.334;2022-07-24T06:19:18;98420.09;;;21.92;73.88
60589;BME280;46421;48.610;9.334;2022-07-24T06:21:43;98415.56;;;22.26;74.28
60589;BME280;46421;48.610;9.334;2022-07-24T06:24:08;98424.09;;;22.64;70.90
60589;BME280;46421;48.610;9.334;2022-07-24T06:26:36;98420.31;;;22.82;68.00
60589;BME280;46421;48.610;9.334;2022-07-24T06:29:01;98419.31;;;22.88;67.35
60589;BME280;46421;48.610;9.334;2022-07-24T06:31:27;98414.56;;;22.79;66.96
60589;BME280;46421;48.610;9.334;2022-07-24T06:33:52;98421.78;;;23.24;65.51
60589;BME280;46421;48.610;9.334;2022-07-24T06:36:17;98418.50;;;23.05;65.54
60589;BME280;46421;48.610;9.334;2022-07-24T06:38:42;98415.72;;;23.83;62.94
60589;BME280;46421;48.610;9.334;2022-07-24T06:41:08;98415.78;;;24.38;61.18
60589;BME280;46421;48.610;9.334;2022-07-24T06:43:33;98419.09;;;25.10;59.30
60589;BME280;46421;48.610;9.334;2022-07-24T06:45:58;98423.22;;;25.77;54.84
60589;BME280;46421;48.610;9.334;2022-07-24T06:48:23;98432.41;;;26.60;54.50
60589;BME280;46421;48.610;9.334;2022-07-24T06:50:49;98424.47;;;25.48;56.21
60589;BME280;46421;48.610;9.334;2022-07-24T06:53:14;98428.78;;;26.13;56.80
60589;BME280;46421;48.610;9.334;2022-07-24T06:55:39;98418.06;;;27.71;50.36
60589;BME280;46421;48.610;9.334;2022-07-24T06:58:05;98418.66;;;29.17;45.83
60589;BME280;46421;48.610;9.334;2022-07-24T07:00:30;98416.28;;;30.02;44.00
60589;BME280;46421;48.610;9.334;2022-07-24T07:02:56;98417.88;;;30.27;42.67
60589;BME280;46421;48.610;9.334;2022-07-24T07:05:21;98415.53;;;31.48;41.50
60589;BME280;46421;48.610;9.334;2022-07-24T07:07:46;98423.63;;;31.95;40.24
60589;BME280;46421;48.610;9.334;2022-07-24T07:10:12;98421.22;;;31.10;39.33
60589;BME280;46421;48.610;9.334;2022-07-24T07:12:37;98411.09;;;32.39;37.29
60589;BME280;46421;48.610;9.334;2022-07-24T07:15:03;98417.47;;;33.66;36.71
60589;BME280;46421;48.610;9.334;2022-07-24T07:17:29;98421.28;;;33.47;35.79
60589;BME280;46421;48.610;9.334;2022-07-24T07:19:54;98419.22;;;33.53;35.43
60589;BME280;46421;48.610;9.334;2022-07-24T07:22:19;98417.84;;;33.91;34.62
60589;BME280;46421;48.610;9.334;2022-07-24T07:24:45;98421.69;;;35.12;35.04
60589;BME280;46421;48.610;9.334;2022-07-24T07:27:10;98420.84;;;35.59;31.81
60589;BME280;46421;48.610;9.334;2022-07-24T07:29:35;98417.84;;;35.35;31.92
60589;BME280;46421;48.610;9.334;2022-07-24T07:32:01;98415.69;;;33.30;33.21
60589;BME280;46421;48.610;9.334;2022-07-24T07:34:26;98410.25;;;34.58;32.67
60589;BME280;46421;48.610;9.334;2022-07-24T07:36:51;98420.16;;;34.59;33.31
60589;BME280;46421;48.610;9.334;2022-07-24T07:39:16;98427.75;;;34.97;32.76
60589;BME280;46421;48.610;9.334;2022-07-24T07:41:42;98416.00;;;35.48;33.13
60589;BME280;46421;48.610;9.334;2022-07-24T07:44:07;98413.09;;;35.44;30.95
60589;BME280;46421;48.610;9.334;2022-07-24T07:46:32;98413.50;;;35.64;30.98
60589;BME280;46421;48.610;9.334;2022-07-24T07:48:58;98412.31;;;35.35;30.56
60589;BME280;46421;48.610;9.334;2022-07-24T07:51:23;98417.19;;;34.81;31.38
60589;BME280;46421;48.610;9.334;2022-07-24T07:53:48;98422.03;;;35.02;32.88
60589;BME280;46421;48.610;9.334;2022-07-24T07:56:14;98412.69;;;36.90;33.97
60589;BME280;46421;48.610;9.334;2022-07-24T07:58:39;98410.91;;;36.85;28.48
60589;BME280;46421;48.610;9.334;2022-07-24T08:01:04;98416.31;;;36.82;30.42
60589;BME280;46421;48.610;9.334;2022-07-24T08:03:30;98418.44;;;36.09;30.46
60589;BME280;46421;48.610;9.334;2022-07-24T08:05:55;98420.16;;;36.56;29.05
60589;BME280;46421;48.610;9.334;2022-07-24T08:08:20;98416.78;;;37.67;28.04
60589;BME280;46421;48.610;9.334;2022-07-24T08:10:46;98420.31;;;38.05;28.69
60589;BME280;46421;48.610;9.334;2022-07-24T08:13:11;98414.59;;;37.60;26.87
60589;BME280;46421;48.610;9.334;2022-07-24T08:15:36;98415.28;;;37.57;27.24
60589;BME280;46421;48.610;9.334;2022-07-24T08:18:02;98425.19;;;37.95;28.83
60589;BME280;46421;48.610;9.334;2022-07-24T08:20:28;98415.16;;;37.91;26.57
60589;BME280;46421;48.610;9.334;2022-07-24T08:22:53;98418.09;;;38.10;28.15
60589;BME280;46421;48.610;9.334;2022-07-24T08:25:19;98410.59;;;38.52;27.43
60589;BME280;46421;48.610;9.334;2022-07-24T08:27:45;98414.00;;;39.21;28.18
60589;BME280;46421;48.610;9.334;2022-07-24T08:30:10;98413.66;;;38.34;26.32
60589;BME280;46421;48.610;9.334;2022-07-24T08:32:36;98414.13;;;38.36;25.03
60589;BME280;46421;48.610;9.334;2022-07-24T08:35:02;98418.66;;;39.01;25.06
60589;BME280;46421;48.610;9.334;2022-07-24T08:37:28;98411.56;;;39.04;24.39
60589;BME280;46421;48.610;9.334;2022-07-24T08:39:53;98399.97;;;36.55;29.43
60589;BME280;46421;48.610;9.334;2022-07-24T08:42:18;98397.19;;;34.84;30.38
60589;BME280;46421;48.610;9.334;2022-07-24T08:44:44;98398.22;;;36.51;27.17
60589;BME280;46421;48.610;9.334;2022-07-24T08:47:09;98385.91;;;37.19;26.78
60589;BME280;46421;48.610;9.334;2022-07-24T08:49:36;98385.47;;;37.79;26.34
60589;BME280;46421;48.610;9.334;2022-07-24T08:52:04;98381.84;;;38.03;26.06
60589;BME280;46421;48.610;9.334;2022-07-24T08:54:30;98388.59;;;37.53;27.64
60589;BME280;46421;48.610;9.334;2022-07-24T08:56:58;98381.53;;;37.68;25.64
60589;BME280;46421;48.610;9.334;2022-07-24T08:59:23;98386.03;;;37.10;25.77
60589;BME280;46421;48.610;9.334;2022-07-24T09:01:48;98379.94;;;37.54;25.82
60589;BME280;46421;48.610;9.334;2022-07-24T09:06:59;98388.06;;;38.00;26.49
60589;BME280;46421;48.610;9.334;2022-07-24T09:09:24;98370.59;;;37.46;25.57
60589;BME280;46421;48.610;9.334;2022-07-24T09:11:49;98383.13;;;38.34;24.41
60589;BME280;46421;48.610;9.334;2022-07-24T09:14:15;98372.09;;;38.09;25.96
60589;BME280;46421;48.610;9.334;2022-07-24T09:16:40;98379.13;;;39.08;24.17
60589;BME280;46421;48.610;9.334;2022-07-24T09:19:09;98374.81;;;39.11;22.71
60589;BME280;46421;48.610;9.334;2022-07-24T09:21:37;98372.03;;;39.11;25.05
60589;BME280;46421;48.610;9.334;2022-07-24T09:24:17;98373.41;;;39.01;24.36
60589;BME280;46421;48.610;9.334;2022-07-24T09:26:54;98373.25;;;39.26;24.03
60589;BME280;46421;48.610;9.334;2022-07-24T09:29:21;98375.91;;;39.38;25.12
60589;BME280;46421;48.610;9.334;2022-07-24T09:34:18;98359.25;;;40.33;22.78
60589;BME280;46421;48.610;9.334;2022-07-24T09:36:58;98367.59;;;39.74;24.28
60589;BME280;46421;48.610;9.334;2022-07-24T09:39:25;98358.06;;;39.75;25.17
60589;BME280;46421;48.610;9.334;2022-07-24T09:41:52;98370.84;;;40.77;23.79
60589;BME280;46421;48.610;9.334;2022-07-24T09:44:18;98369.56;;;40.71;23.10
60589;BME280;46421;48.610;9.334;2022-07-24T09:46:47;98356.41;;;40.49;25.68
60589;BME280;46421;48.610;9.334;2022-07-24T09:49:19;98364.63;;;39.31;24.56
60589;BME280;46421;48.610;9.334;2022-07-24T09:51:45;98365.41;;;39.83;24.80
60589;BME280;46421;48.610;9.334;2022-07-24T09:54:10;98367.09;;;39.20;26.23
60589;BME280;46421;48.610;9.334;2022-07-24T09:56:36;98354.16;;;37.54;26.36
60589;BME280;46421;48.610;9.334;2022-07-24T09:59:01;98354.75;;;38.12;25.47
60589;BME280;46421;48.610;9.334;2022-07-24T10:01:27;98353.63;;;38.58;25.83
60589;BME280;46421;48.610;9.334;2022-07-24T10:03:54;98349.09;;;37.56;25.93
60589;BME280;46421;48.610;9.334;2022-07-24T10:06:21;98348.56;;;38.19;25.61
60589;BME280;46421;48.610;9.334;2022-07-24T10:08:49;98354.56;;;38.94;25.50
60589;BME280;46421;48.610;9.334;2022-07-24T10:11:15;98349.63;;;39.35;24.19
60589;BME280;46421;48.610;9.334;2022-07-24T10:13:42;98347.03;;;39.62;21.77
60589;BME280;46421;48.610;9.334;2022-07-24T10:18:48;98335.72;;;40.50;23.22
60589;BME280;46421;48.610;9.334;2022-07-24T10:21:22;98342.34;;;40.41;23.17
60589;BME280;46421;48.610;9.334;2022-07-24T10:29:13;98324.03;;;40.01;24.82
60589;BME280;46421;48.610;9.334;2022-07-24T10:31:44;98329.56;;;38.78;23.03
60589;BME280;46421;48.610;9.334;2022-07-24T10:42:14;98323.50;;;40.77;21.72
60589;BME280;46421;48.610;9.334;2022-07-24T10:44:40;98319.53;;;41.29;23.12
60589;BME280;46421;48.610;9.334;2022-07-24T10:47:06;98319.97;;;41.04;24.00
60589;BME280;46421;48.610;9.334;2022-07-24T10:52:03;98316.75;;;40.78;22.38
60589;BME280;46421;48.610;9.334;2022-07-24T10:54:28;98316.88;;;39.80;22.85
60589;BME280;46421;48.610;9.334;2022-07-24T10:56:53;98313.63;;;39.98;23.91
60589;BME280;46421;48.610;9.334;2022-07-24T10:59:37;98311.28;;;40.39;22.34
60589;BME280;46421;48.610;9.334;2022-07-24T11:02:28;98307.41;;;40.67;21.15
60589;BME280;46421;48.610;9.334;2022-07-24T11:05:22;98298.88;;;40.80;21.64
60589;BME280;46421;48.610;9.334;2022-07-24T11:10:49;98301.03;;;39.13;21.59
60589;BME280;46421;48.610;9.334;2022-07-24T11:18:42;98288.53;;;36.46;27.40
60589;BME280;46421;48.610;9.334;2022-07-24T11:26:56;98280.34;;;38.18;25.71
60589;BME280;46421;48.610;9.334;2022-07-24T11:29:24;98277.84;;;39.05;23.73
60589;BME280;46421;48.610;9.334;2022-07-24T11:31:55;98280.72;;;39.09;23.17
60589;BME280;46421;48.610;9.334;2022-07-24T11:34:20;98270.03;;;39.47;24.39
60589;BME280;46421;48.610;9.334;2022-07-24T11:36:47;98267.78;;;39.52;22.93
60589;BME280;46421;48.610;9.334;2022-07-24T11:39:14;98273.41;;;39.56;21.89
60589;BME280;46421;48.610;9.334;2022-07-24T11:41:50;98269.47;;;39.57;24.41
60589;BME280;46421;48.610;9.334;2022-07-24T11:46:57;98255.03;;;39.51;23.72
60589;BME280;46421;48.610;9.334;2022-07-24T11:49:24;98263.22;;;39.25;24.19
60589;BME280;46421;48.610;9.334;2022-07-24T11:51:50;98246.63;;;39.48;25.34
60589;BME280;46421;48.610;9.334;2022-07-24T11:54:26;98261.25;;;39.09;24.11
60589;BME280;46421;48.610;9.334;2022-07-24T11:56:53;98254.75;;;38.09;26.01
60589;BME280;46421;48.610;9.334;2022-07-24T11:59:28;98243.38;;;37.98;26.32
60589;BME280;46421;48.610;9.334;2022-07-24T12:02:09;98239.25;;;38.52;24.14
60589;BME280;46421;48.610;9.334;2022-07-24T12:04:35;98240.25;;;39.12;26.60
60589;BME280;46421;48.610;9.334;2022-07-24T12:07:05;98235.81;;;38.75;27.62
60589;BME280;46421;48.610;9.334;2022-07-24T12:09:31;98221.06;;;38.55;23.30
60589;BME280;46421;48.610;9.334;2022-07-24T12:11:56;98220.09;;;37.33;26.83
60589;BME280;46421;48.610;9.334;2022-07-24T12:14:21;98221.59;;;37.84;26.42
60589;BME280;46421;48.610;9.334;2022-07-24T12:16:54;98217.34;;;37.46;25.52
60589;BME280;46421;48.610;9.334;2022-07-24T12:19:24;98212.38;;;36.28;27.64
60589;BME280;46421;48.610;9.334;2022-07-24T12:21:53;98213.44;;;37.22;25.16
60589;BME280;46421;48.610;9.334;2022-07-24T12:24:20;98215.72;;;38.02;23.58
60589;BME280;46421;48.610;9.334;2022-07-24T12:29:18;98215.41;;;38.83;23.44
60589;BME280;46421;48.610;9.334;2022-07-24T12:31:44;98205.88;;;38.20;25.45
60589;BME280;46421;48.610;9.334;2022-07-24T12:34:09;98197.59;;;38.84;24.77
60589;BME280;46421;48.610;9.334;2022-07-24T12:36:35;98204.28;;;38.19;23.54
60589;BME280;46421;48.610;9.334;2022-07-24T12:39:00;98195.09;;;37.17;25.83
60589;BME280;46421;48.610;9.334;2022-07-24T12:41:27;98198.59;;;36.77;27.98
60589;BME280;46421;48.610;9.334;2022-07-24T12:46:32;98193.25;;;35.89;28.31
60589;BME280;46421;48.610;9.334;2022-07-24T12:49:07;98187.41;;;36.61;27.92
60589;BME280;46421;48.610;9.334;2022-07-24T12:51:50;98191.13;;;38.16;26.90
60589;BME280;46421;48.610;9.334;2022-07-24T12:54:26;98188.31;;;37.56;26.74
60589;BME280;46421;48.610;9.334;2022-07-24T12:56:53;98178.66;;;37.37;27.38
60589;BME280;46421;48.610;9.334;2022-07-24T12:59:34;98177.41;;;37.91;24.21
60589;BME280;46421;48.610;9.334;2022-07-24T13:02:05;98174.53;;;38.04;24.93
60589;BME280;46421;48.610;9.334;2022-07-24T13:04:31;98176.00;;;38.62;23.39
60589;BME280;46421;48.610;9.334;2022-07-24T13:07:00;98172.53;;;38.49;23.07
60589;BME280;46421;48.610;9.334;2022-07-24T13:09:27;98165.81;;;38.50;26.38
60589;BME280;46421;48.610;9.334;2022-07-24T13:11:54;98165.94;;;38.89;23.77
60589;BME280;46421;48.610;9.334;2022-07-24T13:14:22;98162.03;;;38.42;24.94
60589;BME280;46421;48.610;9.334;2022-07-24T13:16:48;98160.38;;;38.37;25.15
60589;BME280;46421;48.610;9.334;2022-07-24T13:19:14;98142.69;;;36.47;28.43
60589;BME280;46421;48.610;9.334;2022-07-24T13:21:40;98139.19;;;36.50;26.40
60589;BME280;46421;48.610;9.334;2022-07-24T13:24:07;98135.94;;;36.72;28.07
60589;BME280;46421;48.610;9.334;2022-07-24T13:26:34;98144.44;;;37.45;28.59
60589;BME280;46421;48.610;9.334;2022-07-24T13:29:00;98147.25;;;37.33;27.16
60589;BME280;46421;48.610;9.334;2022-07-24T13:31:25;98134.41;;;37.41;26.88
60589;BME280;46421;48.610;9.334;2022-07-24T13:33:51;98134.22;;;36.80;27.58
60589;BME280;46421;48.610;9.334;2022-07-24T13:36:17;98126.41;;;37.23;25.47
60589;BME280;46421;48.610;9.334;2022-07-24T13:38:42;98129.22;;;36.98;25.71
60589;BME280;46421;48.610;9.334;2022-07-24T13:41:08;98124.50;;;37.40;25.42